createdAt,value
2024-02-05T00:01:10.177Z,100.00
2024-02-05T00:03:38.308Z,100.00
2024-02-05T00:06:06.793Z,100.00
2024-02-05T00:08:35.693Z,100.00
2024-02-05T00:11:06.288Z,100.00
2024-02-05T00:13:34.498Z,100.00
2024-02-05T00:16:03.143Z,100.00
2024-02-05T00:18:31.397Z,100.00
2024-02-05T00:20:59.371Z,100.00
2024-02-05T00:23:27.347Z,100.00
2024-02-05T00:25:55.360Z,100.00
2024-02-05T00:28:24.826Z,100.00
2024-02-05T00:30:52.823Z,100.00
2024-02-05T00:33:20.795Z,100.00
2024-02-05T00:35:48.849Z,100.00
2024-02-05T00:38:16.862Z,100.00
2024-02-05T00:40:45.902Z,100.00
2024-02-05T00:43:13.889Z,100.00
2024-02-05T00:45:43.292Z,100.00
2024-02-05T00:48:11.388Z,100.00
2024-02-05T00:50:39.369Z,100.00
2024-02-05T00:53:07.500Z,100.00
2024-02-05T00:55:35.455Z,100.00
2024-02-05T00:58:04.561Z,100.00
2024-02-05T01:00:32.701Z,100.00
2024-02-05T01:03:02.608Z,100.00
2024-02-05T01:05:30.732Z,100.00
2024-02-05T01:07:58.931Z,100.00
2024-02-05T01:10:26.961Z,100.00
2024-02-05T01:12:54.939Z,100.00
2024-02-05T01:15:22.976Z,100.00
2024-02-05T01:17:51.027Z,100.00
2024-02-05T01:20:20.457Z,100.00
2024-02-05T01:22:48.983Z,100.00
2024-02-05T01:25:17.125Z,100.00
2024-02-05T01:27:45.242Z,100.00
2024-02-05T01:30:14.643Z,100.00
2024-02-05T01:32:42.631Z,100.00
2024-02-05T01:35:11.367Z,100.00
2024-02-05T01:37:40.773Z,100.00
2024-02-05T01:40:11.573Z,100.00
2024-02-05T01:42:40.861Z,100.00
2024-02-05T01:45:10.415Z,100.00
2024-02-05T01:47:39.435Z,100.00
2024-02-05T01:50:10.786Z,100.00
2024-02-05T01:52:46.160Z,100.00
2024-02-05T01:55:16.164Z,99.13
2024-02-05T01:57:45.370Z,100.00
2024-02-05T02:00:16.081Z,99.40
2024-02-05T02:02:45.029Z,99.28
2024-02-05T02:05:14.332Z,99.26
2024-02-05T02:07:44.050Z,98.15
2024-02-05T02:10:12.362Z,97.89
2024-02-05T02:12:40.732Z,97.59
2024-02-05T02:15:09.543Z,97.73
2024-02-05T02:17:42.164Z,96.88
2024-02-05T02:20:11.973Z,96.68
2024-02-05T02:22:54.791Z,98.22
2024-02-05T02:25:24.626Z,98.92
2024-02-05T02:27:52.742Z,98.87
2024-02-05T02:30:23.093Z,99.31
2024-02-05T02:33:02.520Z,99.34
2024-02-05T02:35:35.593Z,97.97
2024-02-05T02:38:12.918Z,96.27
2024-02-05T02:40:43.086Z,95.53
2024-02-05T02:43:12.297Z,94.77
2024-02-05T02:45:40.677Z,94.92
2024-02-05T02:48:09.058Z,94.67
2024-02-05T02:50:37.202Z,94.63
2024-02-05T02:53:05.456Z,94.88
2024-02-05T02:55:33.400Z,94.93
2024-02-05T02:58:02.808Z,94.87
2024-02-05T03:00:30.904Z,93.27
2024-02-05T03:02:58.877Z,93.70
2024-02-05T03:05:27.471Z,94.45
2024-02-05T03:07:55.415Z,95.95
2024-02-05T03:10:23.455Z,95.67
2024-02-05T03:12:51.514Z,94.84
2024-02-05T03:15:21.848Z,94.89
2024-02-05T03:17:49.869Z,93.84
2024-02-05T03:20:34.784Z,92.85
2024-02-05T03:23:08.812Z,93.62
2024-02-05T03:25:38.869Z,93.25
2024-02-05T03:28:08.932Z,93.35
2024-02-05T03:30:39.504Z,93.44
2024-02-05T03:33:07.932Z,93.76
2024-02-05T03:35:36.599Z,93.10
2024-02-05T03:38:05.245Z,92.74
2024-02-05T03:40:33.255Z,92.95
2024-02-05T03:43:01.257Z,92.99
2024-02-05T03:45:30.079Z,92.64
2024-02-05T03:47:59.508Z,92.42
2024-02-05T03:50:27.498Z,93.80
2024-02-05T03:52:55.777Z,95.91
2024-02-05T03:55:23.778Z,96.64
2024-02-05T03:57:59.695Z,95.71
2024-02-05T04:00:27.910Z,94.63
2024-02-05T04:02:57.248Z,94.31
2024-02-05T04:05:29.700Z,94.20
2024-02-05T04:07:58.515Z,94.34
2024-02-05T04:10:27.152Z,94.20
2024-02-05T04:12:55.320Z,95.05
2024-02-05T04:15:23.505Z,95.34
2024-02-05T04:17:51.523Z,96.25
2024-02-05T04:20:20.792Z,97.42
2024-02-05T04:22:51.044Z,99.75
2024-02-05T04:25:19.295Z,98.61
2024-02-05T04:27:47.590Z,97.03
2024-02-05T04:30:17.397Z,95.80
2024-02-05T04:32:45.732Z,95.68
2024-02-05T04:35:13.972Z,94.71
2024-02-05T04:37:44.032Z,93.79
2024-02-05T04:40:13.850Z,93.56
2024-02-05T04:42:42.038Z,93.19
2024-02-05T04:45:11.027Z,92.02
2024-02-05T04:47:39.631Z,92.81
2024-02-05T04:50:08.763Z,92.68
2024-02-05T04:52:37.066Z,92.05
2024-02-05T04:55:05.645Z,91.48
2024-02-05T04:57:35.111Z,91.94
2024-02-05T05:00:03.285Z,92.27
2024-02-05T05:02:31.279Z,91.88
2024-02-05T05:04:59.258Z,91.81
2024-02-05T05:07:28.542Z,92.11
2024-02-05T05:09:56.583Z,91.59
2024-02-05T05:12:24.576Z,93.23
2024-02-05T05:14:53.874Z,94.59
2024-02-05T05:17:22.052Z,95.60
2024-02-05T05:19:50.167Z,95.86
2024-02-05T05:22:18.298Z,95.99
2024-02-05T05:24:46.591Z,95.21
2024-02-05T05:27:14.576Z,96.16
2024-02-05T05:29:42.537Z,95.46
2024-02-05T05:32:11.863Z,94.55
2024-02-05T05:34:40.156Z,95.21
2024-02-05T05:37:08.370Z,95.92
2024-02-05T05:39:36.514Z,96.02
2024-02-05T05:42:04.775Z,94.79
2024-02-05T05:44:32.752Z,93.16
2024-02-05T05:47:00.729Z,92.21
2024-02-05T05:49:30.714Z,91.92
2024-02-05T05:51:59.020Z,91.92
2024-02-05T05:54:27.333Z,91.00
2024-02-05T05:56:55.760Z,90.13
2024-02-05T05:59:23.856Z,90.57
2024-02-05T06:01:52.642Z,90.21
2024-02-05T06:04:20.711Z,90.86
2024-02-05T06:06:50.400Z,91.49
2024-02-05T06:09:19.928Z,91.18
2024-02-05T06:11:48.015Z,92.35
2024-02-05T06:14:16.046Z,93.50
2024-02-05T06:16:44.116Z,93.92
2024-02-05T06:19:12.136Z,93.11
2024-02-05T06:21:40.194Z,92.80
2024-02-05T06:24:09.657Z,92.83
2024-02-05T06:26:37.621Z,92.75
2024-02-05T06:29:05.547Z,92.21
2024-02-05T06:31:33.642Z,91.88
2024-02-05T06:34:02.555Z,94.58
2024-02-05T06:36:31.433Z,94.92
2024-02-05T06:38:59.406Z,93.80
2024-02-05T06:41:28.687Z,92.53
2024-02-05T06:43:56.694Z,92.41
2024-02-05T06:46:24.828Z,90.99
2024-02-05T06:48:52.971Z,90.85
2024-02-05T06:51:21.013Z,90.34
2024-02-05T06:53:49.109Z,90.66
2024-02-05T06:56:17.440Z,90.71
2024-02-05T06:58:46.791Z,91.16
2024-02-05T07:01:15.275Z,91.42
2024-02-05T07:03:43.385Z,92.32
2024-02-05T07:06:12.118Z,94.98
2024-02-05T07:08:40.320Z,95.54
2024-02-05T07:11:08.296Z,95.41
2024-02-05T07:13:36.679Z,95.83
2024-02-05T07:16:06.994Z,95.44
2024-02-05T07:18:35.137Z,95.27
2024-02-05T07:21:06.203Z,96.40
2024-02-05T07:23:34.267Z,96.57
2024-02-05T07:26:02.226Z,96.53
2024-02-05T07:28:30.963Z,96.67
2024-02-05T07:31:00.117Z,95.93
2024-02-05T07:33:29.440Z,95.56
2024-02-05T07:35:59.854Z,95.87
2024-02-05T07:38:28.009Z,97.44
2024-02-05T07:40:56.016Z,98.84
2024-02-05T07:43:24.408Z,99.71
2024-02-05T07:45:52.508Z,99.90
2024-02-05T07:48:21.154Z,100.00
2024-02-05T07:50:50.713Z,100.00
2024-02-05T07:53:18.729Z,100.00
2024-02-05T07:55:46.683Z,100.00
2024-02-05T07:58:14.782Z,100.00
2024-02-05T08:00:45.535Z,100.00
2024-02-05T08:03:14.563Z,100.00
2024-02-05T08:05:42.754Z,100.00
2024-02-05T08:08:12.166Z,100.00
2024-02-05T08:10:40.277Z,100.00
2024-02-05T08:13:08.483Z,100.00
2024-02-05T08:15:36.441Z,100.00
2024-02-05T08:18:04.717Z,100.00
2024-02-05T08:20:32.713Z,100.00
2024-02-05T08:23:00.666Z,100.00
2024-02-05T08:25:31.464Z,100.00
2024-02-05T08:28:01.094Z,100.00
2024-02-05T08:30:29.168Z,100.00
2024-02-05T08:32:57.239Z,100.00
2024-02-05T08:35:25.316Z,100.00
2024-02-05T08:37:54.056Z,100.00
2024-02-05T08:40:22.144Z,100.00
2024-02-05T08:42:51.532Z,100.00
2024-02-05T08:45:20.065Z,100.00
2024-02-05T08:47:48.111Z,100.00
2024-02-05T08:50:16.567Z,100.00
2024-02-05T08:52:44.676Z,100.00
2024-02-05T08:55:12.606Z,100.00
2024-02-05T08:57:43.380Z,100.00
2024-02-05T09:00:15.188Z,100.00
2024-02-05T09:02:43.361Z,100.00
2024-02-05T09:05:11.554Z,100.00
2024-02-05T09:07:40.736Z,100.00
2024-02-05T09:10:09.584Z,100.00
2024-02-05T09:12:37.612Z,100.00
2024-02-05T09:15:06.387Z,100.00
2024-02-05T09:17:35.816Z,100.00
2024-02-05T09:20:04.153Z,100.00
2024-02-05T09:22:35.012Z,100.00
2024-02-05T09:25:03.611Z,100.00
2024-02-05T09:27:31.650Z,100.00
2024-02-05T09:29:59.642Z,100.00
2024-02-05T09:32:27.681Z,100.00
2024-02-05T09:34:59.122Z,100.00
2024-02-05T09:37:27.320Z,100.00
2024-02-05T09:39:55.422Z,100.00
2024-02-05T09:42:23.425Z,100.00
2024-02-05T09:44:52.627Z,100.00
2024-02-05T09:47:21.809Z,100.00
2024-02-05T09:49:50.661Z,100.00
2024-02-05T09:52:21.063Z,100.00
2024-02-05T09:54:49.788Z,100.00
2024-02-05T09:57:18.992Z,100.00
2024-02-05T09:59:48.067Z,100.00
2024-02-05T10:02:18.021Z,100.00
2024-02-05T10:04:46.477Z,100.00
2024-02-05T10:07:16.184Z,100.00
2024-02-05T10:09:45.952Z,100.00
2024-02-05T10:12:14.995Z,100.00
2024-02-05T10:14:43.966Z,100.00
2024-02-05T10:17:12.626Z,100.00
2024-02-05T10:19:40.919Z,100.00
2024-02-05T10:22:10.319Z,100.00
2024-02-05T10:24:41.759Z,100.00
2024-02-05T10:27:16.883Z,100.00
2024-02-05T10:29:44.981Z,100.00
2024-02-05T10:32:12.947Z,100.00
2024-02-05T10:34:41.349Z,100.00
2024-02-05T10:37:11.786Z,100.00
2024-02-05T10:39:39.854Z,100.00
2024-02-05T10:42:07.868Z,100.00
2024-02-05T10:44:41.508Z,100.00
2024-02-05T10:47:11.029Z,100.00
2024-02-05T10:49:39.928Z,100.00
2024-02-05T10:52:11.181Z,100.00
2024-02-05T10:54:42.872Z,100.00
2024-02-05T10:57:11.348Z,100.00
2024-02-05T10:59:40.708Z,100.00
2024-02-05T11:02:15.719Z,100.00
2024-02-05T11:04:44.333Z,100.00
2024-02-05T11:07:18.381Z,100.00
2024-02-05T11:09:50.850Z,100.00
2024-02-05T11:12:23.757Z,100.00
2024-02-05T11:14:58.337Z,100.00
2024-02-05T11:17:27.288Z,100.00
2024-02-05T11:19:57.552Z,100.00
2024-02-05T11:22:26.786Z,100.00
2024-02-05T11:24:54.839Z,100.00
2024-02-05T11:27:22.907Z,100.00
2024-02-05T11:29:53.456Z,100.00
2024-02-05T11:32:31.481Z,100.00
2024-02-05T11:34:59.639Z,100.00
2024-02-05T11:37:28.964Z,100.00
2024-02-05T11:40:00.321Z,100.00
2024-02-05T11:42:29.873Z,100.00
2024-02-05T11:45:00.902Z,100.00
2024-02-05T11:47:29.485Z,100.00
2024-02-05T11:49:59.322Z,100.00
2024-02-05T11:52:27.598Z,100.00
2024-02-05T11:54:57.417Z,100.00
2024-02-05T11:57:26.467Z,100.00
2024-02-05T11:59:54.433Z,100.00
2024-02-05T12:02:24.707Z,100.00
2024-02-05T12:04:53.278Z,100.00
2024-02-05T12:07:24.130Z,100.00
2024-02-05T12:09:52.567Z,100.00
2024-02-05T12:12:21.175Z,99.83
2024-02-05T12:14:49.124Z,100.00
2024-02-05T12:17:17.319Z,100.00
2024-02-05T12:19:46.961Z,100.00
2024-02-05T12:22:16.034Z,100.00
2024-02-05T12:24:44.175Z,99.65
2024-02-05T12:27:12.158Z,100.00
2024-02-05T12:29:40.125Z,98.93
2024-02-05T12:32:08.969Z,97.99
2024-02-05T12:34:37.713Z,96.34
2024-02-05T12:37:08.441Z,95.30
2024-02-05T12:39:37.806Z,96.55
2024-02-05T12:42:06.415Z,95.01
2024-02-05T12:44:40.517Z,93.90
2024-02-05T12:47:12.670Z,92.61
2024-02-05T12:49:41.791Z,92.90
2024-02-05T12:52:11.638Z,92.75
2024-02-05T12:54:40.605Z,93.76
2024-02-05T12:57:09.559Z,92.12
2024-02-05T12:59:37.670Z,91.07
2024-02-05T13:02:07.325Z,91.71
2024-02-05T13:04:37.332Z,92.91
2024-02-05T13:07:09.689Z,92.92
2024-02-05T13:09:43.254Z,92.26
2024-02-05T13:12:13.565Z,94.91
2024-02-05T13:14:41.699Z,92.08
2024-02-05T13:17:09.722Z,92.25
2024-02-05T13:19:38.607Z,93.51
2024-02-05T13:22:07.803Z,93.42
2024-02-05T13:24:37.599Z,91.94
2024-02-05T13:27:07.305Z,91.47
2024-02-05T13:29:35.300Z,90.82
2024-02-05T13:32:03.404Z,90.36
2024-02-05T13:34:33.314Z,90.57
2024-02-05T13:37:01.768Z,90.10
2024-02-05T13:39:29.839Z,89.28
2024-02-05T13:41:58.144Z,89.23
2024-02-05T13:44:28.028Z,89.68
2024-02-05T13:46:56.028Z,90.18
2024-02-05T13:49:24.113Z,90.02
2024-02-05T13:51:52.351Z,90.46
2024-02-05T13:54:20.444Z,88.49
2024-02-05T13:56:50.412Z,88.69
2024-02-05T13:59:18.845Z,88.51
2024-02-05T14:01:52.982Z,87.52
2024-02-05T14:04:21.462Z,87.38
2024-02-05T14:06:49.662Z,88.30
2024-02-05T14:09:17.793Z,88.46
2024-02-05T14:11:45.773Z,89.64
2024-02-05T14:14:13.728Z,87.87
2024-02-05T14:16:41.821Z,87.78
2024-02-05T14:19:11.238Z,87.52
2024-02-05T14:21:41.534Z,87.53
2024-02-05T14:24:10.339Z,88.46
2024-02-05T14:26:39.072Z,88.42
2024-02-05T14:29:07.038Z,88.82
2024-02-05T14:31:35.097Z,88.99
2024-02-05T14:34:03.936Z,88.70
2024-02-05T14:36:33.511Z,87.43
2024-02-05T14:39:01.509Z,86.53
2024-02-05T14:41:29.515Z,85.94
2024-02-05T14:43:57.458Z,87.48
2024-02-05T14:46:25.516Z,87.48
2024-02-05T14:48:53.666Z,87.51
2024-02-05T14:51:21.786Z,86.93
2024-02-05T14:53:51.241Z,86.98
2024-02-05T14:56:19.219Z,86.83
2024-02-05T14:58:47.177Z,87.25
2024-02-05T15:01:15.251Z,87.21
2024-02-05T15:03:46.145Z,85.92
2024-02-05T15:06:14.404Z,86.83
2024-02-05T15:08:42.660Z,87.83
2024-02-05T15:11:12.603Z,87.46
2024-02-05T15:13:40.722Z,85.98
2024-02-05T15:16:09.909Z,85.50
2024-02-05T15:18:37.948Z,86.87
2024-02-05T15:21:06.099Z,86.28
2024-02-05T15:23:37.330Z,86.46
2024-02-05T15:26:05.589Z,86.59
2024-02-05T15:28:34.950Z,83.92
2024-02-05T15:31:03.129Z,83.36
2024-02-05T15:33:31.145Z,83.93
2024-02-05T15:35:59.245Z,82.24
2024-02-05T15:38:27.236Z,83.75
2024-02-05T15:40:55.207Z,82.70
2024-02-05T15:43:23.677Z,83.16
2024-02-05T15:45:53.164Z,82.72
2024-02-05T15:48:21.699Z,81.52
2024-02-05T15:50:49.849Z,83.08
2024-02-05T15:53:19.021Z,82.60
2024-02-05T15:55:48.177Z,82.04
2024-02-05T15:58:16.716Z,83.23
2024-02-05T16:00:45.454Z,83.49
2024-02-05T16:03:14.897Z,85.22
2024-02-05T16:05:42.970Z,86.33
2024-02-05T16:08:11.081Z,86.68
2024-02-05T16:10:39.331Z,85.69
2024-02-05T16:13:07.820Z,85.24
2024-02-05T16:15:35.872Z,85.64
2024-02-05T16:18:04.742Z,85.75
2024-02-05T16:20:35.717Z,85.91
2024-02-05T16:23:04.570Z,85.59
2024-02-05T16:25:35.567Z,85.62
2024-02-05T16:28:03.870Z,86.05
2024-02-05T16:30:34.049Z,87.19
2024-02-05T16:33:02.679Z,87.49
2024-02-05T16:35:30.784Z,87.95
2024-02-05T16:38:00.209Z,88.67
2024-02-05T16:40:28.358Z,89.49
2024-02-05T16:42:56.387Z,90.92
2024-02-05T16:45:24.396Z,91.56
2024-02-05T16:47:52.408Z,93.32
2024-02-05T16:50:20.654Z,95.67
2024-02-05T16:52:49.486Z,96.34
2024-02-05T16:55:19.005Z,96.89
2024-02-05T16:57:47.101Z,97.89
2024-02-05T17:00:15.684Z,95.97
2024-02-05T17:02:43.613Z,94.36
2024-02-05T17:05:11.938Z,93.96
2024-02-05T17:07:45.289Z,96.17
2024-02-05T17:10:13.735Z,95.76
2024-02-05T17:12:43.107Z,99.09
2024-02-05T17:15:11.151Z,99.28
2024-02-05T17:17:39.185Z,97.58
2024-02-05T17:20:08.534Z,96.36
2024-02-05T17:22:36.959Z,97.28
2024-02-05T17:25:05.441Z,95.94
2024-02-05T17:27:33.906Z,94.98
2024-02-05T17:30:03.320Z,94.21
2024-02-05T17:32:31.579Z,93.90
2024-02-05T17:35:01.204Z,94.58
2024-02-05T17:37:29.402Z,94.37
2024-02-05T17:39:57.556Z,95.10
2024-02-05T17:42:25.768Z,97.74
2024-02-05T17:44:53.700Z,97.10
2024-02-05T17:47:23.054Z,98.49
2024-02-05T17:49:51.112Z,99.46
2024-02-05T17:52:19.224Z,98.39
2024-02-05T17:54:47.262Z,97.30
2024-02-05T17:57:15.258Z,96.69
2024-02-05T17:59:43.397Z,95.97
2024-02-05T18:02:11.849Z,96.24
2024-02-05T18:04:41.415Z,96.25
2024-02-05T18:07:09.549Z,96.33
2024-02-05T18:09:37.570Z,96.26
2024-02-05T18:12:08.358Z,95.65
2024-02-05T18:14:37.181Z,96.08
2024-02-05T18:17:05.675Z,93.65
2024-02-05T18:19:33.946Z,94.01
2024-02-05T18:22:03.369Z,95.32
2024-02-05T18:24:37.965Z,96.45
2024-02-05T18:27:13.653Z,96.59
2024-02-05T18:29:41.604Z,95.64
2024-02-05T18:32:09.558Z,95.54
2024-02-05T18:34:42.396Z,95.37
2024-02-05T18:37:14.453Z,94.67
2024-02-05T18:39:42.706Z,95.01
2024-02-05T18:42:10.724Z,95.45
2024-02-05T18:44:38.698Z,95.27
2024-02-05T18:47:07.578Z,96.07
2024-02-05T18:49:35.622Z,95.35
2024-02-05T18:52:07.835Z,96.92
2024-02-05T18:54:39.189Z,95.86
2024-02-05T18:57:09.902Z,94.82
2024-02-05T18:59:37.937Z,94.71
2024-02-05T19:02:06.083Z,94.89
2024-02-05T19:04:34.128Z,95.75
2024-02-05T19:07:02.109Z,94.76
2024-02-05T19:09:30.164Z,95.85
2024-02-05T19:11:59.686Z,94.42
2024-02-05T19:14:27.666Z,95.70
2024-02-05T19:16:55.714Z,97.70
2024-02-05T19:19:23.849Z,97.25
2024-02-05T19:21:52.107Z,97.43
2024-02-05T19:24:20.504Z,96.22
2024-02-05T19:26:50.021Z,96.76
2024-02-05T19:29:21.300Z,95.70
2024-02-05T19:31:49.574Z,94.41
2024-02-05T19:34:20.238Z,93.19
2024-02-05T19:36:48.273Z,93.95
2024-02-05T19:39:16.360Z,93.63
2024-02-05T19:41:44.518Z,94.24
2024-02-05T19:44:12.601Z,93.88
2024-02-05T19:46:42.108Z,93.79
2024-02-05T19:49:10.269Z,94.67
2024-02-05T19:51:38.238Z,95.57
2024-02-05T19:54:06.766Z,97.49
2024-02-05T19:56:34.703Z,98.10
2024-02-05T19:59:02.791Z,99.66
2024-02-05T20:01:31.044Z,100.00
2024-02-05T20:04:00.626Z,99.63
2024-02-05T20:06:28.730Z,97.84
2024-02-05T20:08:56.730Z,96.41
2024-02-05T20:11:24.724Z,95.26
2024-02-05T20:13:52.681Z,95.72
2024-02-05T20:16:27.499Z,94.98
2024-02-05T20:18:56.288Z,95.76
2024-02-05T20:21:26.232Z,95.43
2024-02-05T20:23:55.828Z,95.58
2024-02-05T20:26:24.215Z,95.90
2024-02-05T20:28:52.199Z,92.45
2024-02-05T20:31:20.231Z,93.58
2024-02-05T20:33:48.266Z,94.15
2024-02-05T20:36:16.226Z,94.41
2024-02-05T20:38:45.993Z,95.00
2024-02-05T20:41:14.234Z,94.74
2024-02-05T20:43:46.542Z,94.57
2024-02-05T20:46:15.230Z,93.64
2024-02-05T20:48:43.204Z,93.96
2024-02-05T20:51:11.236Z,93.49
2024-02-05T20:53:39.387Z,94.27
2024-02-05T20:56:09.091Z,93.95
2024-02-05T20:58:37.181Z,93.64
2024-02-05T21:01:05.587Z,94.38
2024-02-05T21:03:36.739Z,96.28
2024-02-05T21:06:05.655Z,99.77
2024-02-05T21:08:34.328Z,98.04
2024-02-05T21:11:04.450Z,96.90
2024-02-05T21:13:34.675Z,94.28
2024-02-05T21:16:02.990Z,91.78
2024-02-05T21:18:31.211Z,93.44
2024-02-05T21:20:59.522Z,93.88
2024-02-05T21:23:27.524Z,93.55
2024-02-05T21:25:55.451Z,94.84
2024-02-05T21:28:23.481Z,93.17
2024-02-05T21:30:52.892Z,93.29
2024-02-05T21:33:20.921Z,93.56
2024-02-05T21:35:49.006Z,94.02
2024-02-05T21:38:17.028Z,94.07
2024-02-05T21:40:45.404Z,93.67
2024-02-05T21:43:13.532Z,94.03
2024-02-05T21:45:41.620Z,93.95
2024-02-05T21:48:11.722Z,95.27
2024-02-05T21:50:40.627Z,96.55
2024-02-05T21:53:08.718Z,96.66
2024-02-05T21:55:36.847Z,96.60
2024-02-05T21:58:05.113Z,95.65
2024-02-05T22:00:33.160Z,94.43
2024-02-05T22:03:01.169Z,94.13
2024-02-05T22:05:30.652Z,94.22
2024-02-05T22:07:58.806Z,93.82
2024-02-05T22:10:26.738Z,94.40
2024-02-05T22:12:54.819Z,94.88
2024-02-05T22:15:22.842Z,95.74
2024-02-05T22:17:51.916Z,95.70
2024-02-05T22:20:20.206Z,95.93
2024-02-05T22:22:49.578Z,95.55
2024-02-05T22:25:18.564Z,96.95
2024-02-05T22:27:46.727Z,97.12
2024-02-05T22:30:15.410Z,94.99
2024-02-05T22:32:43.395Z,95.35
2024-02-05T22:35:11.734Z,95.50
2024-02-05T22:37:39.851Z,95.74
2024-02-05T22:40:10.841Z,95.22
2024-02-05T22:42:39.164Z,95.61
2024-02-05T22:45:08.660Z,95.36
2024-02-05T22:47:36.906Z,96.17
2024-02-05T22:50:05.920Z,99.45
2024-02-05T22:52:35.577Z,100.00
2024-02-05T22:55:04.685Z,100.00
2024-02-05T22:57:34.547Z,99.63
2024-02-05T23:00:03.050Z,99.10
2024-02-05T23:02:31.899Z,98.80
2024-02-05T23:05:00.037Z,98.71
2024-02-05T23:07:28.090Z,97.68
2024-02-05T23:09:56.037Z,97.54
2024-02-05T23:12:24.223Z,96.87
2024-02-05T23:14:53.577Z,96.43
2024-02-05T23:17:21.530Z,95.70
2024-02-05T23:19:49.578Z,96.08
2024-02-05T23:22:17.909Z,95.51
2024-02-05T23:24:46.174Z,95.82
2024-02-05T23:27:14.088Z,94.51
2024-02-05T23:29:42.236Z,94.55
2024-02-05T23:32:11.599Z,94.60
2024-02-05T23:34:39.851Z,94.86
2024-02-05T23:37:08.398Z,95.65
2024-02-05T23:39:37.455Z,94.86
2024-02-05T23:42:05.996Z,96.29
2024-02-05T23:44:33.925Z,96.40
2024-02-05T23:47:01.909Z,98.03
2024-02-05T23:49:31.389Z,96.28
2024-02-05T23:51:59.427Z,96.01
2024-02-05T23:54:27.399Z,96.32
2024-02-05T23:56:55.735Z,96.37
2024-02-05T23:59:23.791Z,95.93
